Time;durP1;ratioP1;P1;durP2;ratioP2;P2;SDS_P1;SDS_P2;PMS_P1;PMS_P2;Temp;Humidity;BMP_temperature;BMP_pressure;BME280_temperature;BME280_humidity;BME280_pressure;Samples;Min_cycle;Max_cycle;Signal;HPM_P1;HPM_P2
2022/04/10 00:00:21;;;;;;;3.35;2.10;;;;;;;3.70;80.10;98179.91;4379761;32;20117;-70
2022/04/10 00:02:48;;;;;;;3.03;1.62;;;;;;;3.78;79.58;98169.00;4379519;32;20133;-70
2022/04/10 00:05:15;;;;;;;3.25;1.65;;;;;;;3.75;79.57;98174.41;4379310;32;20437;-70
2022/04/10 00:07:42;;;;;;;3.40;2.10;;;;;;;3.75;80.00;98161.47;4379470;32;20165;-70
2022/04/10 00:10:10;;;;;;;5.35;2.17;;;;;;;3.64;80.17;98157.03;4379609;32;20495;-70
2022/04/10 00:12:37;;;;;;;1.60;1.40;;;;;;;3.63;81.04;98156.19;4379408;32;20082;-70
2022/04/10 00:15:05;;;;;;;4.05;1.80;;;;;;;3.63;80.51;98166.56;4379410;32;20090;-70
2022/04/10 00:17:33;;;;;;;3.10;1.77;;;;;;;3.57;81.26;98156.63;4379344;32;20099;-70
2022/04/10 00:20:00;;;;;;;3.35;1.70;;;;;;;3.45;81.99;98155.75;4365781;32;20124;-70
2022/04/10 00:22:27;;;;;;;2.87;1.37;;;;;;;3.48;81.90;98152.94;4379464;32;20167;-70
2022/04/10 00:24:54;;;;;;;2.08;1.48;;;;;;;3.49;82.04;98164.94;4379577;32;20453;-70
2022/04/10 00:27:21;;;;;;;4.62;1.90;;;;;;;3.42;82.80;98161.12;4379347;32;20087;-70
2022/04/10 00:29:48;;;;;;;3.35;1.83;;;;;;;3.33;83.67;98156.59;4379673;32;20125;-70
2022/04/10 00:32:26;;;;;;;1.55;1.30;;;;;;;3.33;84.09;98159.16;4379279;32;20471;-70
2022/04/10 00:34:54;;;;;;;2.10;1.85;;;;;;;3.29;84.20;98155.97;4379119;32;20093;-70
2022/04/10 00:37:21;;;;;;;2.97;2.00;;;;;;;3.24;84.75;98144.28;4379131;32;20098;-70
2022/04/10 00:39:49;;;;;;;2.75;1.87;;;;;;;3.22;85.42;98139.22;4379138;32;20102;-70
2022/04/10 00:42:16;;;;;;;2.60;1.90;;;;;;;3.09;86.34;98153.91;4379324;32;20095;-70
2022/04/10 00:44:43;;;;;;;3.42;2.20;;;;;;;3.13;86.53;98147.63;4379213;32;20536;-70
2022/04/10 00:47:10;;;;;;;3.65;2.20;;;;;;;3.01;87.62;98155.28;4379500;32;20091;-70
2022/04/10 00:49:38;;;;;;;3.42;2.03;;;;;;;2.98;87.91;98155.50;4379048;32;20090;-70
2022/04/10 00:52:09;;;;;;;4.25;2.40;;;;;;;3.07;87.67;98166.97;4379097;32;20090;-70
2022/04/10 00:54:38;;;;;;;2.83;1.62;;;;;;;3.04;87.93;98180.13;4366001;32;20519;-70
2022/04/10 00:57:05;;;;;;;3.97;2.35;;;;;;;3.04;88.17;98174.13;4365463;32;20764;-70
2022/04/10 00:59:32;;;;;;;3.78;2.50;;;;;;;2.97;88.63;98173.72;4379324;32;20125;-70
2022/04/10 01:01:59;;;;;;;4.62;2.37;;;;;;;2.88;89.07;98188.09;4379154;32;20117;-70
2022/04/10 01:04:38;;;;;;;2.40;1.52;;;;;;;2.93;89.37;98198.97;4379081;32;20094;-70
2022/04/10 01:07:06;;;;;;;3.58;2.03;;;;;;;2.83;89.63;98208.25;4378915;32;20138;-70
2022/04/10 01:09:33;;;;;;;4.28;2.35;;;;;;;2.87;89.68;98193.38;4379267;32;20432;-69
2022/04/10 01:12:02;;;;;;;4.97;2.30;;;;;;;2.76;90.27;98186.34;4378940;32;20151;-70
2022/04/10 01:14:29;;;;;;;3.00;1.80;;;;;;;2.78;90.34;98194.81;4379002;32;20075;-70
2022/04/10 01:16:57;;;;;;;3.08;1.92;;;;;;;2.73;90.75;98205.47;4365822;32;20187;-70
2022/04/10 01:19:25;;;;;;;4.20;2.42;;;;;;;2.66;91.17;98201.63;4378925;32;20214;-70
2022/04/10 01:21:55;;;;;;;2.53;1.73;;;;;;;2.61;91.52;98193.34;4379112;32;20113;-70
2022/04/10 01:24:22;;;;;;;4.12;2.22;;;;;;;2.52;91.95;98196.53;4365878;32;20091;-70
2022/04/10 01:26:50;;;;;;;4.50;2.03;;;;;;;2.49;92.08;98200.16;4379088;32;20115;-70
2022/04/10 01:29:18;;;;;;;3.40;2.05;;;;;;;2.51;92.23;98213.78;4378936;32;20121;-70
2022/04/10 01:31:46;;;;;;;2.42;1.50;;;;;;;2.52;91.38;98222.41;4378816;32;20086;-70
2022/04/10 01:34:16;;;;;;;3.72;1.90;;;;;;;2.48;90.91;98195.91;4378708;32;20453;-70
2022/04/10 01:36:44;;;;;;;2.87;1.58;;;;;;;2.36;91.56;98204.47;4378975;32;20118;-70
2022/04/10 01:39:12;;;;;;;3.50;2.05;;;;;;;2.45;91.06;98212.47;4378874;32;20690;-70
2022/04/10 01:41:41;;;;;;;2.30;1.87;;;;;;;2.38;91.08;98231.88;4378865;32;20112;-70
2022/04/10 01:44:09;;;;;;;4.82;2.30;;;;;;;2.40;90.94;98222.25;4378837;32;20087;-70
2022/04/10 01:46:36;;;;;;;3.10;1.42;;;;;;;2.34;91.46;98217.47;4378557;32;20103;-70
2022/04/10 01:49:07;;;;;;;3.50;1.83;;;;;;;2.35;91.46;98234.66;4378540;32;20117;-70
2022/04/10 01:51:34;;;;;;;2.92;1.90;;;;;;;2.35;91.00;98219.16;4378499;32;20113;-70
2022/04/10 01:54:01;;;;;;;2.30;1.80;;;;;;;2.32;91.11;98209.00;4378609;32;20086;-70
2022/04/10 01:56:28;;;;;;;3.62;1.62;;;;;;;2.34;91.43;98212.31;4378379;32;20107;-69
2022/04/10 01:58:56;;;;;;;2.17;1.62;;;;;;;2.33;91.59;98215.00;4378357;32;20137;-69
2022/04/10 02:01:23;;;;;;;2.30;1.42;;;;;;;2.29;91.79;98204.84;4378716;32;20444;-70
2022/04/10 02:03:52;;;;;;;4.68;2.30;;;;;;;2.25;91.88;98208.56;4378259;32;20087;-70
2022/04/10 02:06:19;;;;;;;2.58;1.75;;;;;;;2.22;91.94;98198.41;4379515;32;20099;-70
2022/04/10 02:08:47;;;;;;;3.47;2.30;;;;;;;2.23;92.11;98205.25;4380508;32;20160;-69
2022/04/10 02:11:18;;;;;;;1.87;1.62;;;;;;;2.18;92.63;98209.91;4380454;32;20113;-70
2022/04/10 02:13:45;;;;;;;3.60;1.75;;;;;;;2.15;93.00;98204.06;4380291;32;20091;-70
2022/04/10 02:16:15;;;;;;;2.70;1.80;;;;;;;2.02;93.46;98211.78;4380520;32;20454;-69
2022/04/10 02:18:43;;;;;;;2.53;1.50;;;;;;;2.02;93.33;98207.44;4380158;32;20149;-70
2022/04/10 02:21:12;;;;;;;3.15;1.58;;;;;;;2.00;94.06;98217.06;4380279;32;20392;-69
2022/04/10 02:23:40;;;;;;;3.53;2.25;;;;;;;1.93;94.28;98229.50;4380294;32;20169;-69
2022/04/10 02:26:10;;;;;;;4.45;1.95;;;;;;;1.87;94.71;98234.25;4380136;32;20166;-70
2022/04/10 02:28:38;;;;;;;5.07;1.98;;;;;;;1.90;94.44;98205.66;4380384;32;20094;-69
2022/04/10 02:31:06;;;;;;;2.72;2.05;;;;;;;1.85;94.92;98233.53;4380116;32;20091;-70
2022/04/10 02:33:35;;;;;;;2.75;1.83;;;;;;;1.77;95.23;98223.66;4379012;32;20437;-70
2022/04/10 02:36:03;;;;;;;5.70;2.03;;;;;;;1.86;95.08;98232.56;4366526;32;20106;-70
2022/04/10 02:38:30;;;;;;;2.12;1.45;;;;;;;1.95;94.34;98234.59;4380372;32;20542;-70
2022/04/10 02:40:58;;;;;;;1.55;1.08;;;;;;;1.83;94.70;98243.91;4380023;32;20113;-69
2022/04/10 02:43:26;;;;;;;2.25;1.60;;;;;;;1.86;94.80;98245.50;4380219;32;20342;-69
2022/04/10 02:45:54;;;;;;;2.92;1.70;;;;;;;1.90;94.54;98245.22;4380307;32;20426;-69
2022/04/10 02:48:23;;;;;;;3.15;1.60;;;;;;;1.82;94.78;98241.44;4380030;32;20149;-69
2022/04/10 02:50:51;;;;;;;2.72;1.45;;;;;;;1.77;95.65;98239.13;4380293;32;20086;-69
2022/04/10 02:53:19;;;;;;;1.52;1.33;;;;;;;1.77;95.33;98245.16;4380148;32;20161;-70
2022/04/10 02:55:49;;;;;;;6.30;1.70;;;;;;;1.74;95.45;98249.66;4379874;32;20087;-70
2022/04/10 02:58:16;;;;;;;6.00;2.33;;;;;;;1.78;95.32;98248.56;4380021;32;20106;-69
2022/04/10 03:00:43;;;;;;;4.03;1.87;;;;;;;1.74;95.44;98249.66;4379032;32;20094;-69
2022/04/10 03:03:11;;;;;;;2.25;1.65;;;;;;;1.71;95.80;98247.25;4379857;32;20087;-69
2022/04/10 03:05:38;;;;;;;2.03;1.52;;;;;;;1.75;95.89;98253.91;4380157;32;20146;-70
2022/04/10 03:08:06;;;;;;;4.10;2.10;;;;;;;1.73;96.10;98279.81;4379758;32;20445;-70
2022/04/10 03:10:34;;;;;;;3.03;1.80;;;;;;;1.62;96.58;98278.81;4366421;32;20099;-70
2022/04/10 03:13:01;;;;;;;2.60;1.40;;;;;;;1.55;97.21;98281.78;4380053;32;20430;-69
2022/04/10 03:15:29;;;;;;;2.90;1.80;;;;;;;1.59;96.84;98293.56;4379899;32;20127;-70
2022/04/10 03:17:56;;;;;;;3.05;1.70;;;;;;;1.62;96.91;98283.97;4378917;32;20156;-70
2022/04/10 03:20:24;;;;;;;5.07;1.73;;;;;;;1.58;96.90;98289.31;4379975;32;20138;-70
2022/04/10 03:22:51;;;;;;;3.67;2.03;;;;;;;1.59;96.86;98285.84;4379916;32;20177;-70
2022/04/10 03:25:19;;;;;;;2.75;1.60;;;;;;;1.56;97.16;98288.59;4379630;32;20099;-69
2022/04/10 03:27:47;;;;;;;3.95;2.20;;;;;;;1.65;97.12;98301.87;4379886;32;20263;-70
2022/04/10 03:30:14;;;;;;;2.47;1.95;;;;;;;1.64;96.99;98292.47;4380089;32;20095;-70
2022/04/10 03:32:42;;;;;;;3.75;2.42;;;;;;;1.58;97.18;98291.09;4379903;32;20149;-69
2022/04/10 03:35:09;;;;;;;1.60;1.15;;;;;;;1.66;96.67;98288.84;4379753;32;20107;-69
2022/04/10 03:37:37;;;;;;;8.55;2.15;;;;;;;1.62;96.95;98297.72;4379983;32;20121;-69
2022/04/10 03:40:05;;;;;;;3.22;1.92;;;;;;;1.60;97.21;98320.22;4379553;32;20124;-69
2022/04/10 03:42:39;;;;;;;4.93;1.80;;;;;;;1.61;97.05;98303.00;4379993;32;20158;-69
2022/04/10 03:45:08;;;;;;;5.68;1.62;;;;;;;1.53;97.48;98303.41;4379775;32;20099;-70
2022/04/10 03:47:37;;;;;;;4.37;2.37;;;;;;;1.56;97.58;98296.34;4379696;32;20116;-69
2022/04/10 03:50:05;;;;;;;2.45;1.65;;;;;;;1.47;97.94;98304.62;4366169;32;20082;-69
2022/04/10 03:52:33;;;;;;;4.20;2.30;;;;;;;1.53;98.02;98296.53;4379782;32;20095;-70
2022/04/10 03:55:00;;;;;;;2.72;1.67;;;;;;;1.53;98.11;98304.28;4379564;32;20111;-70
2022/04/10 03:57:27;;;;;;;6.68;1.73;;;;;;;1.47;98.35;98309.81;4379770;32;20133;-70
2022/04/10 03:59:57;;;;;;;3.40;1.75;;;;;;;1.49;98.90;98309.72;4379781;32;20090;-69
2022/04/10 04:02:25;;;;;;;3.47;2.50;;;;;;;1.47;98.73;98330.44;4379679;32;20116;-69
2022/04/10 04:04:53;;;;;;;3.75;2.37;;;;;;;1.44;98.87;98315.16;4379409;32;20099;-69
2022/04/10 04:07:20;;;;;;;3.75;2.08;;;;;;;1.41;99.36;98335.97;4379708;32;20110;-70
2022/04/10 04:09:48;;;;;;;3.95;2.03;;;;;;;1.46;99.41;98333.13;4379711;32;20453;-69
2022/04/10 04:12:15;;;;;;;2.20;1.58;;;;;;;1.38;99.81;98326.66;4379638;32;20166;-70
2022/04/10 04:14:43;;;;;;;4.12;2.37;;;;;;;1.42;99.66;98337.63;4379374;32;20098;-70
2022/04/10 04:17:10;;;;;;;3.08;2.35;;;;;;;1.42;99.81;98346.22;4379473;32;20094;-70
2022/04/10 04:19:39;;;;;;;3.62;2.30;;;;;;;1.37;100.00;98343.06;4379611;32;20182;-70
2022/04/10 04:22:06;;;;;;;5.30;2.33;;;;;;;1.30;100.00;98338.34;4379647;32;20137;-70
2022/04/10 04:24:34;;;;;;;3.72;2.35;;;;;;;1.31;100.00;98340.00;4379583;32;20162;-70
2022/04/10 04:27:02;;;;;;;4.35;2.60;;;;;;;1.33;100.00;98371.72;4379576;32;20161;-70
2022/04/10 04:29:29;;;;;;;4.93;2.22;;;;;;;1.29;100.00;98349.56;4379111;32;20098;-69
2022/04/10 04:31:56;;;;;;;7.12;2.60;;;;;;;1.35;100.00;98349.25;4379414;32;20113;-70
2022/04/10 04:34:24;;;;;;;7.93;3.00;;;;;;;1.37;100.00;98371.44;4379645;32;20161;-69
2022/04/10 04:36:53;;;;;;;3.08;2.35;;;;;;;1.39;100.00;98358.44;4379472;32;20117;-70
2022/04/10 04:39:20;;;;;;;3.97;2.60;;;;;;;1.36;100.00;98359.47;4379554;32;20450;-70
2022/04/10 04:41:48;;;;;;;4.03;2.12;;;;;;;1.35;100.00;98356.97;4379084;32;20091;-70
2022/04/10 04:44:16;;;;;;;3.85;2.45;;;;;;;1.39;100.00;98358.44;4379520;32;20140;-69
2022/04/10 04:46:43;;;;;;;4.32;2.53;;;;;;;1.33;100.00;98377.72;4379274;32;20098;-70
2022/04/10 04:49:11;;;;;;;4.28;2.87;;;;;;;1.55;100.00;98364.38;4379219;32;20095;-69
2022/04/10 04:51:38;;;;;;;3.92;2.45;;;;;;;1.52;100.00;98380.03;4379157;32;20074;-70
2022/04/10 04:54:09;;;;;;;4.82;2.80;;;;;;;1.47;100.00;98364.00;4379433;32;20157;-70
2022/04/10 04:56:37;;;;;;;3.95;2.95;;;;;;;1.50;100.00;98387.06;4379417;32;20471;-70
2022/04/10 04:59:05;;;;;;;4.60;2.58;;;;;;;1.53;100.00;98386.88;4379334;32;20086;-70
2022/04/10 05:01:33;;;;;;;5.03;3.10;;;;;;;1.68;100.00;98389.47;4379337;32;20113;-70
2022/04/10 05:04:01;;;;;;;5.10;2.95;;;;;;;1.66;100.00;98394.72;4379077;32;20095;-70
2022/04/10 05:06:29;;;;;;;4.45;2.33;;;;;;;1.68;100.00;98402.38;4379290;32;20124;-70
2022/04/10 05:08:56;;;;;;;4.82;2.80;;;;;;;1.71;99.74;98412.53;4379012;32;20145;-70
2022/04/10 05:11:23;;;;;;;8.60;4.00;;;;;;;1.78;99.65;98414.66;4379040;32;20157;-70
2022/04/10 05:13:51;;;;;;;5.15;3.42;;;;;;;1.72;99.16;98415.00;4379223;32;20126;-70
2022/04/10 05:16:19;;;;;;;5.60;2.58;;;;;;;1.87;98.84;98410.69;4378965;32;20129;-70
2022/04/10 05:18:48;;;;;;;7.00;2.62;;;;;;;1.79;99.23;98415.50;4379182;32;20099;-70
2022/04/10 05:21:16;;;;;;;3.45;2.42;;;;;;;1.87;98.89;98421.03;4379188;32;20095;-70
2022/04/10 05:23:43;;;;;;;6.15;2.85;;;;;;;1.83;98.93;98416.97;4379182;32;20456;-70
2022/04/10 05:26:11;;;;;;;4.00;2.75;;;;;;;1.99;98.46;98422.06;4379018;32;20361;-70
2022/04/10 05:28:39;;;;;;;5.87;3.30;;;;;;;1.87;98.64;98431.37;4378878;32;20086;-70
2022/04/10 05:31:07;;;;;;;4.93;2.78;;;;;;;2.05;97.82;98428.63;4378960;32;20087;-70
2022/04/10 05:33:35;;;;;;;5.03;2.92;;;;;;;2.11;98.03;98434.25;4379008;32;20099;-70
2022/04/10 05:36:03;;;;;;;4.15;2.35;;;;;;;2.22;96.77;98419.84;4379014;32;20124;-70
2022/04/10 05:38:30;;;;;;;6.22;3.47;;;;;;;2.15;96.63;98411.66;4378996;32;20440;-70
2022/04/10 05:40:59;;;;;;;4.53;2.53;;;;;;;2.24;95.75;98433.50;4377824;32;20152;-70
2022/04/10 05:43:29;;;;;;;6.55;2.72;;;;;;;2.27;95.71;98434.16;4378738;32;20149;-69
2022/04/10 05:45:56;;;;;;;4.05;3.20;;;;;;;2.31;95.54;98430.44;4378744;32;20102;-69
2022/04/10 05:48:24;;;;;;;4.85;3.08;;;;;;;2.37;95.20;98437.00;4378750;32;20090;-69
2022/04/10 05:50:51;;;;;;;4.75;3.10;;;;;;;2.57;94.40;98435.78;4378729;32;20566;-70
2022/04/10 05:53:19;;;;;;;5.25;3.22;;;;;;;2.50;94.08;98429.34;4378766;32;20493;-70
2022/04/10 05:55:46;;;;;;;4.05;2.40;;;;;;;2.66;92.92;98429.19;4378574;32;20113;-70
2022/04/10 05:58:15;;;;;;;3.83;2.25;;;;;;;2.76;92.93;98430.28;4378685;32;20395;-70
2022/04/10 06:00:42;;;;;;;3.37;2.40;;;;;;;2.82;92.85;98440.25;4378659;32;20094;-70
2022/04/10 06:03:12;;;;;;;5.32;3.08;;;;;;;2.91;91.94;98430.28;4378576;32;20119;-70
2022/04/10 06:05:40;;;;;;;4.43;2.65;;;;;;;2.83;91.50;98457.44;4378453;32;20519;-70
2022/04/10 06:08:08;;;;;;;5.32;2.72;;;;;;;3.05;91.55;98425.03;4378640;32;20178;-70
2022/04/10 06:10:36;;;;;;;4.90;2.97;;;;;;;3.14;90.62;98439.16;4378406;32;20433;-70
2022/04/10 06:13:08;;;;;;;3.17;2.15;;;;;;;3.06;90.20;98446.56;4378432;32;20106;-70
2022/04/10 06:15:44;;;;;;;4.97;2.90;;;;;;;3.11;89.39;98453.09;4378119;32;20079;-70
2022/04/10 06:18:11;;;;;;;4.40;3.15;;;;;;;3.31;89.57;98443.22;4378428;32;20102;-69
2022/04/10 06:20:39;;;;;;;3.42;2.75;;;;;;;3.30;89.46;98438.97;4378330;32;20508;-70
2022/04/10 06:23:06;;;;;;;7.40;3.87;;;;;;;3.30;88.09;98449.31;4378173;32;20102;-70
2022/04/10 06:25:34;;;;;;;5.22;2.83;;;;;;;3.44;87.99;98448.47;4378097;32;20090;-70
2022/04/10 06:28:01;;;;;;;5.45;3.12;;;;;;;3.50;87.80;98450.66;4378251;32;20107;-70
2022/04/10 06:30:29;;;;;;;3.15;2.20;;;;;;;3.56;87.50;98470.97;4378057;32;20083;-70
2022/04/10 06:32:56;;;;;;;4.57;3.10;;;;;;;3.88;86.50;98470.59;4377996;32;20125;-70
2022/04/10 06:35:24;;;;;;;4.62;2.78;;;;;;;3.95;86.14;98473.59;4378124;32;20103;-70
2022/04/10 06:37:53;;;;;;;6.12;3.45;;;;;;;3.95;85.68;98476.19;4378129;32;20095;-70
2022/04/10 06:40:21;;;;;;;4.78;3.37;;;;;;;3.99;85.46;98483.66;4378087;32;20098;-70
2022/04/10 06:42:49;;;;;;;6.25;3.85;;;;;;;3.99;84.03;98470.69;4377853;32;20117;-70
2022/04/10 06:45:21;;;;;;;5.82;3.62;;;;;;;4.11;83.56;98492.37;4378124;32;20090;-70
2022/04/10 06:47:50;;;;;;;6.87;5.03;;;;;;;4.22;83.10;98489.91;4377496;32;20103;-70
2022/04/10 06:50:18;;;;;;;5.62;3.10;;;;;;;4.58;82.50;98488.31;4377614;32;20075;-70
2022/04/10 06:52:50;;;;;;;4.47;2.72;;;;;;;5.01;80.84;98497.47;4379873;32;20186;-70
2022/04/10 06:55:19;;;;;;;4.28;3.40;;;;;;;4.89;80.49;98506.09;4380101;32;20491;-70
2022/04/10 06:57:46;;;;;;;4.75;3.20;;;;;;;4.79;80.84;98498.13;4379964;32;20090;-70
2022/04/10 07:00:14;;;;;;;3.25;2.42;;;;;;;4.87;81.11;98502.78;4379883;32;20154;-70
2022/04/10 07:02:44;;;;;;;6.12;2.65;;;;;;;5.06;79.72;98526.53;4380315;32;20091;-70
2022/04/10 07:05:12;;;;;;;8.32;3.08;;;;;;;4.76;81.28;98519.94;4380011;32;20106;-70
2022/04/10 07:07:39;;;;;;;3.78;2.35;;;;;;;4.78;82.06;98505.09;4380049;32;20099;-70
2022/04/10 07:10:07;;;;;;;6.57;2.85;;;;;;;4.97;80.45;98507.22;4380059;32;20091;-70
2022/04/10 07:12:34;;;;;;;4.93;3.40;;;;;;;4.89;80.37;98516.47;4379749;32;20170;-70
2022/04/10 07:15:03;;;;;;;7.60;3.05;;;;;;;5.05;80.03;98519.66;4379928;32;20472;-70
2022/04/10 07:17:30;;;;;;;5.22;3.08;;;;;;;5.17;79.22;98530.94;4379998;32;20430;-70
2022/04/10 07:19:58;;;;;;;4.72;3.03;;;;;;;5.05;79.29;98535.22;4380111;32;20110;-70
2022/04/10 07:25:12;;;;;;;2.83;2.28;;;;;;;5.05;79.46;98542.19;4379863;32;20364;-70
2022/04/10 07:27:40;;;;;;;5.25;3.55;;;;;;;5.19;78.37;98552.44;4379996;32;20404;-70
2022/04/10 07:30:08;;;;;;;4.80;3.33;;;;;;;5.11;78.77;98549.56;4379967;32;20128;-70
2022/04/10 07:32:37;;;;;;;3.58;2.72;;;;;;;5.23;78.52;98547.88;4379996;32;20103;-70
2022/04/10 07:35:08;;;;;;;5.60;3.40;;;;;;;5.31;78.46;98555.94;4379977;32;20537;-70
2022/04/10 07:37:36;;;;;;;6.07;3.42;;;;;;;5.49;78.04;98553.78;4379900;32;20116;-70
2022/04/10 07:40:04;;;;;;;5.07;3.60;;;;;;;5.68;77.21;98561.09;4379666;32;20117;-70
2022/04/10 07:42:31;;;;;;;4.07;2.90;;;;;;;5.49;77.32;98565.00;4379781;32;20182;-70
2022/04/10 07:45:07;;;;;;;8.80;3.40;;;;;;;5.48;77.69;98567.72;4379750;32;20121;-70
2022/04/10 07:47:37;;;;;;;6.40;3.47;;;;;;;5.30;78.20;98569.88;4379771;32;20147;-70
2022/04/10 07:50:04;;;;;;;5.10;3.08;;;;;;;5.54;76.34;98577.69;4379889;32;20071;-70
2022/04/10 07:52:32;;;;;;;7.18;4.00;;;;;;;5.77;77.13;98567.37;4379609;32;20111;-70
2022/04/10 07:55:00;;;;;;;6.03;3.12;;;;;;;5.69;76.26;98567.94;4379783;32;20436;-70
2022/04/10 07:57:27;;;;;;;5.47;3.50;;;;;;;5.68;76.07;98584.50;4379779;32;20190;-70
2022/04/10 07:59:57;;;;;;;5.70;3.47;;;;;;;5.64;76.19;98578.66;4379609;32;20476;-70
2022/04/10 08:02:27;;;;;;;4.00;2.80;;;;;;;5.47;76.75;98582.47;4379236;32;20102;-70
2022/04/10 08:04:55;;;;;;;5.35;2.85;;;;;;;5.47;76.78;98581.66;4379023;32;20169;-70
2022/04/10 08:07:23;;;;;;;6.90;2.92;;;;;;;5.53;76.99;98596.81;4379551;32;20594;-70
2022/04/10 08:09:50;;;;;;;6.43;3.50;;;;;;;5.46;76.67;98582.59;4379453;32;20082;-70
2022/04/10 08:12:18;;;;;;;5.25;3.35;;;;;;;5.76;76.59;98589.97;4379466;32;20099;-70
2022/04/10 08:14:45;;;;;;;5.72;3.67;;;;;;;6.01;74.71;98588.19;4379569;32;20094;-70
2022/04/10 08:17:12;;;;;;;3.83;3.12;;;;;;;6.16;75.07;98594.88;4379519;32;20078;-70
2022/04/10 08:19:40;;;;;;;3.67;2.83;;;;;;;6.36;73.13;98600.38;4379403;32;20500;-70
2022/04/10 08:22:07;;;;;;;5.57;3.40;;;;;;;6.31;73.82;98602.47;4379722;32;20414;-70
2022/04/10 08:24:34;;;;;;;6.10;3.30;;;;;;;6.54;74.32;98592.94;4379396;32;20094;-70
2022/04/10 08:27:03;;;;;;;6.00;3.95;;;;;;;6.61;73.65;98593.31;4379334;32;20419;-70
2022/04/10 08:29:30;;;;;;;5.07;3.33;;;;;;;6.60;72.58;98592.50;4379415;32;20149;-70
2022/04/10 08:31:57;;;;;;;6.68;3.22;;;;;;;6.68;71.72;98605.75;4379228;32;20099;-70
2022/04/10 08:34:25;;;;;;;4.97;2.40;;;;;;;6.69;70.79;98591.81;4379435;32;20113;-70
2022/04/10 08:36:52;;;;;;;3.22;2.90;;;;;;;6.73;69.06;98593.22;4379193;32;20078;-70
2022/04/10 08:39:19;;;;;;;5.90;3.25;;;;;;;6.74;70.22;98583.63;4379188;32;20165;-70
2022/04/10 08:41:48;;;;;;;5.45;3.03;;;;;;;6.91;70.11;98588.38;4379289;32;20187;-70
2022/04/10 08:44:16;;;;;;;4.60;3.40;;;;;;;7.04;69.38;98600.44;4379204;32;20526;-70
2022/04/10 08:46:46;;;;;;;3.90;2.80;;;;;;;6.96;71.70;98593.22;4379191;32;20142;-70
2022/04/10 08:49:13;;;;;;;5.07;2.75;;;;;;;6.84;68.91;98597.59;4365616;32;20087;-70
2022/04/10 08:51:40;;;;;;;4.82;3.35;;;;;;;7.35;68.59;98604.09;4379187;32;20484;-70
2022/04/10 08:54:08;;;;;;;4.87;2.30;;;;;;;7.25;66.90;98608.34;4379279;32;20102;-70
2022/04/10 08:56:35;;;;;;;3.97;2.75;;;;;;;7.23;67.69;98581.59;4379030;32;20079;-70
2022/04/10 08:59:02;;;;;;;5.93;2.97;;;;;;;7.25;67.71;98595.34;4379219;32;20109;-70
2022/04/10 09:01:29;;;;;;;4.70;2.25;;;;;;;7.44;64.62;98599.94;4379475;32;20103;-70
2022/04/10 09:03:56;;;;;;;3.95;3.03;;;;;;;7.24;64.04;98610.16;4379038;32;20110;-70
2022/04/10 09:06:24;;;;;;;2.83;1.98;;;;;;;7.19;66.24;98608.84;4379212;32;20492;-70
2022/04/10 09:08:51;;;;;;;3.65;2.72;;;;;;;7.41;65.61;98594.97;4365794;32;20405;-70
2022/04/10 09:11:18;;;;;;;3.60;2.53;;;;;;;7.29;65.62;98597.56;4378989;32;20118;-70
2022/04/10 09:13:49;;;;;;;5.60;2.20;;;;;;;7.41;66.22;98608.81;4379036;32;20151;-70
2022/04/10 09:16:17;;;;;;;11.05;2.60;;;;;;;7.42;66.37;98605.28;4377912;32;20148;-70
2022/04/10 09:18:54;;;;;;;4.28;2.40;;;;;;;7.47;64.79;98600.50;4378942;32;20129;-70
2022/04/10 09:21:29;;;;;;;3.50;2.60;;;;;;;7.46;64.30;98590.22;4378977;32;20512;-70
2022/04/10 09:24:00;;;;;;;4.47;1.87;;;;;;;7.47;64.45;98607.50;4379009;32;20143;-70
2022/04/10 09:26:44;;;;;;;2.92;2.20;;;;;;;7.48;62.47;98593.53;4378947;32;20143;-70
2022/04/10 09:29:14;;;;;;;3.37;2.40;;;;;;;7.46;62.58;98601.47;4378947;32;20102;-70
2022/04/10 09:31:41;;;;;;;4.97;2.42;;;;;;;7.34;61.96;98601.59;4378873;32;20429;-70
2022/04/10 09:34:11;;;;;;;3.70;2.33;;;;;;;7.75;64.24;98605.31;4378757;32;20524;-70
2022/04/10 09:36:44;;;;;;;2.50;1.92;;;;;;;7.68;63.62;98631.06;4378739;32;20161;-70
2022/04/10 09:39:13;;;;;;;2.90;2.17;;;;;;;7.44;61.55;98615.56;4379048;32;20075;-70
2022/04/10 09:41:42;;;;;;;2.17;1.80;;;;;;;7.65;59.42;98613.03;4378707;32;20158;-70
2022/04/10 09:44:14;;;;;;;2.83;1.42;;;;;;;7.59;61.04;98606.53;4378653;32;20142;-70
2022/04/10 09:46:41;;;;;;;3.92;1.60;;;;;;;7.77;58.81;98621.66;4378844;32;20082;-70
2022/04/10 09:49:13;;;;;;;3.10;2.25;;;;;;;7.95;59.45;98606.31;4378182;32;20086;-70
2022/04/10 09:52:03;;;;;;;2.65;2.40;;;;;;;8.10;61.08;98599.00;4365189;32;20162;-70
2022/04/10 09:54:50;;;;;;;2.50;2.08;;;;;;;8.18;63.81;98610.47;4378480;32;20113;-70
2022/04/10 09:57:20;;;;;;;4.80;2.62;;;;;;;7.95;62.41;98612.34;4378375;32;20484;-70
2022/04/10 09:59:49;;;;;;;3.47;2.60;;;;;;;8.05;61.02;98607.22;4378726;32;20087;-70
2022/04/10 10:02:17;;;;;;;5.12;2.12;;;;;;;8.22;62.42;98605.84;4378461;32;20090;-70
2022/04/10 10:04:46;;;;;;;3.05;2.45;;;;;;;8.17;60.45;98621.03;4378373;32;20150;-70
2022/04/10 10:07:18;;;;;;;3.95;2.65;;;;;;;7.86;59.46;98613.09;4378280;32;20109;-70
2022/04/10 10:09:48;;;;;;;3.60;2.20;;;;;;;7.76;58.09;98617.41;4378529;32;20075;-70
2022/04/10 10:12:16;;;;;;;2.70;2.15;;;;;;;7.79;58.69;98612.75;4378268;32;20425;-70
2022/04/10 10:14:44;;;;;;;4.07;2.20;;;;;;;8.06;61.66;98603.66;4378174;32;20136;-70
2022/04/10 10:17:11;;;;;;;8.10;2.40;;;;;;;8.07;59.56;98614.91;4364709;32;20082;-70
2022/04/10 10:19:41;;;;;;;5.50;2.65;;;;;;;8.08;61.74;98611.34;4378122;32;20527;-70
2022/04/10 10:22:12;;;;;;;4.28;2.05;;;;;;;8.12;60.30;98597.13;4378212;32;20113;-70
2022/04/10 10:24:50;;;;;;;3.40;2.62;;;;;;;8.48;60.03;98608.94;4378103;32;20133;-70
2022/04/10 10:27:18;;;;;;;4.15;2.17;;;;;;;8.67;60.16;98626.50;4365876;32;20108;-70
2022/04/10 10:29:48;;;;;;;3.92;2.45;;;;;;;8.23;57.21;98620.53;4380040;32;20091;-70
2022/04/10 10:32:21;;;;;;;3.22;2.37;;;;;;;8.25;60.66;98623.88;4380227;32;20218;-70
2022/04/10 10:34:50;;;;;;;3.33;2.30;;;;;;;8.41;57.87;98630.44;4366759;32;20472;-70
2022/04/10 10:37:30;;;;;;;7.03;2.40;;;;;;;8.24;59.69;98616.16;4380368;32;20135;-70
2022/04/10 10:40:14;;;;;;;4.37;2.30;;;;;;;8.56;57.80;98623.97;4380137;32;20070;-70
2022/04/10 10:42:43;;;;;;;2.83;2.17;;;;;;;8.84;56.32;98619.03;4380228;32;20090;-70
2022/04/10 10:45:11;;;;;;;3.55;2.45;;;;;;;8.88;56.41;98629.09;4379880;32;20103;-70
2022/04/10 10:47:39;;;;;;;2.62;2.03;;;;;;;8.82;57.10;98639.22;4366677;32;20133;-70
2022/04/10 10:50:27;;;;;;;4.87;1.83;;;;;;;8.59;54.48;98631.53;4366549;32;20095;-70
2022/04/10 10:53:05;;;;;;;1.67;1.40;;;;;;;8.63;54.92;98625.12;4380034;32;20113;-70
2022/04/10 10:55:46;;;;;;;4.50;2.33;;;;;;;8.85;54.84;98605.84;4380023;32;20132;-70
2022/04/10 10:58:15;;;;;;;5.68;2.20;;;;;;;9.18;55.41;98630.06;4379933;32;20187;-70
2022/04/10 11:00:44;;;;;;;4.62;1.87;;;;;;;9.14;56.24;98625.22;4366818;32;20087;-70
2022/04/10 11:03:11;;;;;;;2.30;1.90;;;;;;;8.90;55.16;98623.72;4379876;32;20102;-70
2022/04/10 11:05:39;;;;;;;2.75;2.22;;;;;;;8.88;55.81;98630.88;4379960;32;20495;-70
2022/04/10 11:08:12;;;;;;;2.83;1.52;;;;;;;8.53;54.54;98622.44;4379987;32;20157;-70
2022/04/10 11:11:02;;;;;;;3.20;1.85;;;;;;;8.75;56.27;98614.59;4379887;32;20087;-70
2022/04/10 11:13:42;;;;;;;2.28;1.30;;;;;;;9.02;54.83;98620.09;4379626;32;20095;-70
2022/04/10 11:16:11;;;;;;;2.95;1.25;;;;;;;9.42;51.99;98634.13;4378108;32;20165;-70
2022/04/10 11:18:53;;;;;;;4.18;1.75;;;;;;;9.16;52.11;98618.06;4366883;32;20106;-70
2022/04/10 11:21:24;;;;;;;1.48;1.30;;;;;;;9.49;52.60;98631.81;4379772;32;20110;-70
2022/04/10 11:23:57;;;;;;;1.48;1.20;;;;;;;9.28;51.74;98611.81;4379746;32;20155;-70
2022/04/10 11:26:34;;;;;;;1.40;1.30;;;;;;;8.83;50.38;98612.97;4379902;32;20134;-70
2022/04/10 11:29:07;;;;;;;1.40;1.17;;;;;;;9.15;51.13;98616.44;4379873;32;20082;-70
2022/04/10 11:31:47;;;;;;;2.58;1.15;;;;;;;8.90;49.42;98625.53;4379767;32;20113;-70
2022/04/10 11:34:25;;;;;;;3.30;1.00;;;;;;;8.62;48.74;98633.06;4379824;32;20091;-70
2022/04/10 11:36:57;;;;;;;1.83;1.05;;;;;;;8.91;47.60;98622.78;4379712;32;20227;-70
2022/04/10 11:39:25;;;;;;;1.40;0.77;;;;;;;9.14;45.49;98609.53;4378916;32;20461;-70
2022/04/10 11:41:53;;;;;;;0.60;0.60;;;;;;;9.28;49.29;98611.81;4379628;32;20456;-70
2022/04/10 11:44:21;;;;;;;1.08;0.82;;;;;;;9.36;45.93;98618.97;4366105;32;20804;-70
2022/04/10 11:46:49;;;;;;;1.17;0.85;;;;;;;9.51;48.52;98637.75;4366211;32;20160;-70
2022/04/10 11:49:21;;;;;;;1.12;0.93;;;;;;;9.15;46.72;98611.19;4379432;32;20105;-70
2022/04/10 11:51:59;;;;;;;0.80;0.68;;;;;;;9.40;47.35;98602.91;4379631;32;20495;-70